sensor_id;sensor_type;location;lat;lon;timestamp;temperature;humidity
13806;DHT22;6974;53.606;9.872;2023-06-10T00:01:28;18.30;99.90
13806;DHT22;6974;53.606;9.872;2023-06-10T00:03:56;18.30;99.90
13806;DHT22;6974;53.606;9.872;2023-06-10T00:06:23;18.30;99.90
13806;DHT22;6974;53.606;9.872;2023-06-10T00:08:50;18.30;99.90
13806;DHT22;6974;53.606;9.872;2023-06-10T00:11:18;18.20;99.90
13806;DHT22;6974;53.606;9.872;2023-06-10T00:13:45;18.20;99.90
13806;DHT22;6974;53.606;9.872;2023-06-10T00:16:12;18.20;99.90
13806;DHT22;6974;53.606;9.872;2023-06-10T00:18:39;18.10;99.90
13806;DHT22;6974;53.606;9.872;2023-06-10T00:21:06;18.00;99.90
13806;DHT22;6974;53.606;9.872;2023-06-10T00:23:32;18.10;99.90
13806;DHT22;6974;53.606;9.872;2023-06-10T00:26:03;18.00;99.90
13806;DHT22;6974;53.606;9.872;2023-06-10T00:28:31;18.00;99.90
13806;DHT22;6974;53.606;9.872;2023-06-10T00:30:58;18.00;99.90
13806;DHT22;6974;53.606;9.872;2023-06-10T00:33:25;17.90;99.90
13806;DHT22;6974;53.606;9.872;2023-06-10T00:35:52;17.80;99.90
13806;DHT22;6974;53.606;9.872;2023-06-10T00:38:19;17.80;99.90
13806;DHT22;6974;53.606;9.872;2023-06-10T00:40:46;17.80;99.90
13806;DHT22;6974;53.606;9.872;2023-06-10T00:43:12;17.80;99.90
13806;DHT22;6974;53.606;9.872;2023-06-10T00:45:41;17.80;99.90
13806;DHT22;6974;53.606;9.872;2023-06-10T00:48:08;17.80;99.90
13806;DHT22;6974;53.606;9.872;2023-06-10T00:50:36;17.80;99.90
13806;DHT22;6974;53.606;9.872;2023-06-10T00:53:05;17.80;99.90
13806;DHT22;6974;53.606;9.872;2023-06-10T00:55:32;17.70;99.90
13806;DHT22;6974;53.606;9.872;2023-06-10T00:57:59;17.60;99.90
13806;DHT22;6974;53.606;9.872;2023-06-10T01:00:27;17.60;99.90
13806;DHT22;6974;53.606;9.872;2023-06-10T01:02:55;17.60;99.90
13806;DHT22;6974;53.606;9.872;2023-06-10T01:05:23;17.50;99.90
13806;DHT22;6974;53.606;9.872;2023-06-10T01:07:56;17.50;99.90
13806;DHT22;6974;53.606;9.872;2023-06-10T01:10:27;17.40;99.90
13806;DHT22;6974;53.606;9.872;2023-06-10T01:12:59;17.40;99.90
13806;DHT22;6974;53.606;9.872;2023-06-10T01:15:28;17.30;99.90
13806;DHT22;6974;53.606;9.872;2023-06-10T01:17:58;17.30;99.90
13806;DHT22;6974;53.606;9.872;2023-06-10T01:20:27;17.30;99.90
13806;DHT22;6974;53.606;9.872;2023-06-10T01:22:56;17.30;99.90
13806;DHT22;6974;53.606;9.872;2023-06-10T01:25:23;17.30;99.90
13806;DHT22;6974;53.606;9.872;2023-06-10T01:27:55;17.30;99.90
13806;DHT22;6974;53.606;9.872;2023-06-10T01:30:28;17.30;99.90
13806;DHT22;6974;53.606;9.872;2023-06-10T01:32:57;17.30;99.90
13806;DHT22;6974;53.606;9.872;2023-06-10T01:35:27;17.30;99.90
13806;DHT22;6974;53.606;9.872;2023-06-10T01:37:57;17.30;99.90
13806;DHT22;6974;53.606;9.872;2023-06-10T01:40:25;17.20;99.90
13806;DHT22;6974;53.606;9.872;2023-06-10T01:42:53;17.30;99.90
13806;DHT22;6974;53.606;9.872;2023-06-10T01:45:20;17.20;99.90
13806;DHT22;6974;53.606;9.872;2023-06-10T01:47:46;17.20;99.90
13806;DHT22;6974;53.606;9.872;2023-06-10T01:50:13;17.20;99.90
13806;DHT22;6974;53.606;9.872;2023-06-10T01:52:41;17.20;99.90
13806;DHT22;6974;53.606;9.872;2023-06-10T01:55:10;17.10;99.90
13806;DHT22;6974;53.606;9.872;2023-06-10T01:57:36;17.10;99.90
13806;DHT22;6974;53.606;9.872;2023-06-10T02:00:04;17.10;99.90
13806;DHT22;6974;53.606;9.872;2023-06-10T02:02:31;17.20;99.90
13806;DHT22;6974;53.606;9.872;2023-06-10T02:04:58;17.10;99.90
13806;DHT22;6974;53.606;9.872;2023-06-10T02:07:25;17.10;99.90
13806;DHT22;6974;53.606;9.872;2023-06-10T02:09:52;17.10;99.90
13806;DHT22;6974;53.606;9.872;2023-06-10T02:12:20;17.00;99.90
13806;DHT22;6974;53.606;9.872;2023-06-10T02:14:47;17.00;99.90
13806;DHT22;6974;53.606;9.872;2023-06-10T02:17:14;16.90;99.90
13806;DHT22;6974;53.606;9.872;2023-06-10T02:19:41;17.00;99.90
13806;DHT22;6974;53.606;9.872;2023-06-10T02:22:08;16.90;99.90
13806;DHT22;6974;53.606;9.872;2023-06-10T02:24:36;17.00;99.90
13806;DHT22;6974;53.606;9.872;2023-06-10T02:27:04;16.90;99.90
13806;DHT22;6974;53.606;9.872;2023-06-10T02:29:33;17.00;99.90
13806;DHT22;6974;53.606;9.872;2023-06-10T02:32:01;16.90;99.90
13806;DHT22;6974;53.606;9.872;2023-06-10T02:34:28;16.90;99.90
13806;DHT22;6974;53.606;9.872;2023-06-10T02:36:55;16.80;99.90
13806;DHT22;6974;53.606;9.872;2023-06-10T02:39:22;16.80;99.90
13806;DHT22;6974;53.606;9.872;2023-06-10T02:41:49;16.80;99.90
13806;DHT22;6974;53.606;9.872;2023-06-10T02:44:18;16.80;99.90
13806;DHT22;6974;53.606;9.872;2023-06-10T02:46:46;16.70;99.90
13806;DHT22;6974;53.606;9.872;2023-06-10T02:49:13;16.70;99.90
13806;DHT22;6974;53.606;9.872;2023-06-10T02:51:40;16.70;99.90
13806;DHT22;6974;53.606;9.872;2023-06-10T02:54:06;16.70;99.90
13806;DHT22;6974;53.606;9.872;2023-06-10T02:56:33;16.70;99.90
13806;DHT22;6974;53.606;9.872;2023-06-10T02:59:00;16.70;99.90
13806;DHT22;6974;53.606;9.872;2023-06-10T03:01:28;16.70;99.90
13806;DHT22;6974;53.606;9.872;2023-06-10T03:03:58;16.70;99.90
13806;DHT22;6974;53.606;9.872;2023-06-10T03:06:25;16.60;99.90
13806;DHT22;6974;53.606;9.872;2023-06-10T03:08:52;16.60;99.90
13806;DHT22;6974;53.606;9.872;2023-06-10T03:11:18;16.60;99.90
13806;DHT22;6974;53.606;9.872;2023-06-10T03:13:46;16.50;99.90
13806;DHT22;6974;53.606;9.872;2023-06-10T03:16:13;16.50;99.90
13806;DHT22;6974;53.606;9.872;2023-06-10T03:18:39;16.50;99.90
13806;DHT22;6974;53.606;9.872;2023-06-10T03:21:08;16.50;99.90
13806;DHT22;6974;53.606;9.872;2023-06-10T03:23:35;16.50;99.90
13806;DHT22;6974;53.606;9.872;2023-06-10T03:26:02;16.50;99.90
13806;DHT22;6974;53.606;9.872;2023-06-10T03:28:30;16.40;99.90
13806;DHT22;6974;53.606;9.872;2023-06-10T03:30:57;16.50;99.90
13806;DHT22;6974;53.606;9.872;2023-06-10T03:33:24;16.40;99.90
13806;DHT22;6974;53.606;9.872;2023-06-10T03:35:51;16.50;99.90
13806;DHT22;6974;53.606;9.872;2023-06-10T03:38:19;16.50;99.90
13806;DHT22;6974;53.606;9.872;2023-06-10T03:40:47;16.50;99.90
13806;DHT22;6974;53.606;9.872;2023-06-10T03:43:13;16.50;99.90
13806;DHT22;6974;53.606;9.872;2023-06-10T03:45:40;16.50;99.90
13806;DHT22;6974;53.606;9.872;2023-06-10T03:48:07;16.50;99.90
13806;DHT22;6974;53.606;9.872;2023-06-10T03:50:35;16.50;99.90
13806;DHT22;6974;53.606;9.872;2023-06-10T03:53:02;16.40;99.90
13806;DHT22;6974;53.606;9.872;2023-06-10T03:55:30;16.40;99.90
13806;DHT22;6974;53.606;9.872;2023-06-10T03:57:57;16.40;99.90
13806;DHT22;6974;53.606;9.872;2023-06-10T04:00:24;16.40;99.90
13806;DHT22;6974;53.606;9.872;2023-06-10T04:02:51;16.40;99.90
13806;DHT22;6974;53.606;9.872;2023-06-10T04:05:19;16.40;99.90
13806;DHT22;6974;53.606;9.872;2023-06-10T04:07:47;16.50;99.90
13806;DHT22;6974;53.606;9.872;2023-06-10T04:10:14;16.50;99.90
13806;DHT22;6974;53.606;9.872;2023-06-10T04:12:43;16.50;99.90
13806;DHT22;6974;53.606;9.872;2023-06-10T04:15:10;16.60;99.90
13806;DHT22;6974;53.606;9.872;2023-06-10T04:17:38;16.60;99.90
13806;DHT22;6974;53.606;9.872;2023-06-10T04:20:06;16.60;99.90
13806;DHT22;6974;53.606;9.872;2023-06-10T04:22:33;16.60;99.90
13806;DHT22;6974;53.606;9.872;2023-06-10T04:25:00;16.60;99.90
13806;DHT22;6974;53.606;9.872;2023-06-10T04:27:27;16.70;99.90
13806;DHT22;6974;53.606;9.872;2023-06-10T04:29:55;16.60;99.90
13806;DHT22;6974;53.606;9.872;2023-06-10T04:32:22;16.60;99.90
13806;DHT22;6974;53.606;9.872;2023-06-10T04:34:49;16.70;99.90
13806;DHT22;6974;53.606;9.872;2023-06-10T04:37:16;16.70;99.90
13806;DHT22;6974;53.606;9.872;2023-06-10T04:39:43;16.80;99.90
13806;DHT22;6974;53.606;9.872;2023-06-10T04:42:09;16.70;99.90
13806;DHT22;6974;53.606;9.872;2023-06-10T04:44:36;16.70;99.90
13806;DHT22;6974;53.606;9.872;2023-06-10T04:47:05;16.80;99.90
13806;DHT22;6974;53.606;9.872;2023-06-10T04:49:33;16.80;99.90
13806;DHT22;6974;53.606;9.872;2023-06-10T04:52:00;16.90;99.90
13806;DHT22;6974;53.606;9.872;2023-06-10T04:54:30;16.90;99.90
13806;DHT22;6974;53.606;9.872;2023-06-10T04:56:58;16.90;99.90
13806;DHT22;6974;53.606;9.872;2023-06-10T04:59:25;17.00;99.90
13806;DHT22;6974;53.606;9.872;2023-06-10T05:01:52;17.10;99.90
13806;DHT22;6974;53.606;9.872;2023-06-10T05:04:20;17.00;99.90
13806;DHT22;6974;53.606;9.872;2023-06-10T05:06:46;17.10;99.90
13806;DHT22;6974;53.606;9.872;2023-06-10T05:09:13;17.20;99.90
13806;DHT22;6974;53.606;9.872;2023-06-10T05:11:41;17.20;99.90
13806;DHT22;6974;53.606;9.872;2023-06-10T05:14:08;17.20;99.90
13806;DHT22;6974;53.606;9.872;2023-06-10T05:16:34;17.20;99.90
13806;DHT22;6974;53.606;9.872;2023-06-10T05:19:01;17.30;99.90
13806;DHT22;6974;53.606;9.872;2023-06-10T05:21:31;17.30;99.90
13806;DHT22;6974;53.606;9.872;2023-06-10T05:23:57;17.30;99.90
13806;DHT22;6974;53.606;9.872;2023-06-10T05:26:24;17.40;99.90
13806;DHT22;6974;53.606;9.872;2023-06-10T05:28:51;17.40;99.90
13806;DHT22;6974;53.606;9.872;2023-06-10T05:31:18;17.50;99.90
13806;DHT22;6974;53.606;9.872;2023-06-10T05:33:45;17.60;99.90
13806;DHT22;6974;53.606;9.872;2023-06-10T05:36:12;17.60;99.90
13806;DHT22;6974;53.606;9.872;2023-06-10T05:38:40;17.70;99.90
13806;DHT22;6974;53.606;9.872;2023-06-10T05:41:07;17.70;99.90
13806;DHT22;6974;53.606;9.872;2023-06-10T05:43:33;17.80;99.90
13806;DHT22;6974;53.606;9.872;2023-06-10T05:46:01;17.80;99.90
13806;DHT22;6974;53.606;9.872;2023-06-10T05:48:27;17.80;99.90
13806;DHT22;6974;53.606;9.872;2023-06-10T05:50:54;17.90;99.90
13806;DHT22;6974;53.606;9.872;2023-06-10T05:53:21;18.00;99.90
13806;DHT22;6974;53.606;9.872;2023-06-10T05:55:49;18.10;99.90
13806;DHT22;6974;53.606;9.872;2023-06-10T05:58:17;18.10;99.90
13806;DHT22;6974;53.606;9.872;2023-06-10T06:00:44;18.10;99.90
13806;DHT22;6974;53.606;9.872;2023-06-10T06:03:11;18.10;99.90
13806;DHT22;6974;53.606;9.872;2023-06-10T06:05:38;18.10;99.90
13806;DHT22;6974;53.606;9.872;2023-06-10T06:08:05;18.10;99.90
13806;DHT22;6974;53.606;9.872;2023-06-10T06:10:33;18.20;99.90
13806;DHT22;6974;53.606;9.872;2023-06-10T06:13:01;18.20;99.90
13806;DHT22;6974;53.606;9.872;2023-06-10T06:15:28;18.30;99.90
13806;DHT22;6974;53.606;9.872;2023-06-10T06:17:55;18.40;99.90
13806;DHT22;6974;53.606;9.872;2023-06-10T06:20:22;18.40;99.90
13806;DHT22;6974;53.606;9.872;2023-06-10T06:22:49;18.40;99.90
13806;DHT22;6974;53.606;9.872;2023-06-10T06:25:16;18.50;99.90
13806;DHT22;6974;53.606;9.872;2023-06-10T06:27:43;18.50;99.90
13806;DHT22;6974;53.606;9.872;2023-06-10T06:30:12;18.50;99.90
13806;DHT22;6974;53.606;9.872;2023-06-10T06:32:39;18.50;99.90
13806;DHT22;6974;53.606;9.872;2023-06-10T06:35:07;18.60;99.90
13806;DHT22;6974;53.606;9.872;2023-06-10T06:37:34;18.60;99.90
13806;DHT22;6974;53.606;9.872;2023-06-10T06:40:01;18.70;99.90
13806;DHT22;6974;53.606;9.872;2023-06-10T06:42:29;18.70;99.90
13806;DHT22;6974;53.606;9.872;2023-06-10T06:44:56;18.70;99.90
13806;DHT22;6974;53.606;9.872;2023-06-10T06:47:24;18.70;99.90
13806;DHT22;6974;53.606;9.872;2023-06-10T06:49:52;18.70;99.90
13806;DHT22;6974;53.606;9.872;2023-06-10T06:52:19;18.70;99.90
13806;DHT22;6974;53.606;9.872;2023-06-10T06:54:45;18.70;99.90
13806;DHT22;6974;53.606;9.872;2023-06-10T06:57:12;18.70;99.90
13806;DHT22;6974;53.606;9.872;2023-06-10T06:59:39;18.70;99.90
13806;DHT22;6974;53.606;9.872;2023-06-10T07:02:06;18.70;99.90
13806;DHT22;6974;53.606;9.872;2023-06-10T07:04:34;18.80;99.90
13806;DHT22;6974;53.606;9.872;2023-06-10T07:07:01;18.80;99.90
13806;DHT22;6974;53.606;9.872;2023-06-10T07:09:28;18.90;99.90
13806;DHT22;6974;53.606;9.872;2023-06-10T07:11:55;19.00;99.90
13806;DHT22;6974;53.606;9.872;2023-06-10T07:14:22;18.90;99.90
13806;DHT22;6974;53.606;9.872;2023-06-10T07:16:48;18.90;99.90
13806;DHT22;6974;53.606;9.872;2023-06-10T07:19:15;19.20;99.90
13806;DHT22;6974;53.606;9.872;2023-06-10T07:21:43;19.10;99.90
13806;DHT22;6974;53.606;9.872;2023-06-10T07:24:10;19.20;99.90
13806;DHT22;6974;53.606;9.872;2023-06-10T07:26:37;19.30;99.90
13806;DHT22;6974;53.606;9.872;2023-06-10T07:29:04;19.30;99.90
13806;DHT22;6974;53.606;9.872;2023-06-10T07:31:31;19.40;99.90
13806;DHT22;6974;53.606;9.872;2023-06-10T07:33:58;19.50;99.90
13806;DHT22;6974;53.606;9.872;2023-06-10T07:36:25;19.60;99.90
13806;DHT22;6974;53.606;9.872;2023-06-10T07:38:55;19.70;99.90
13806;DHT22;6974;53.606;9.872;2023-06-10T07:41:23;19.80;99.90
13806;DHT22;6974;53.606;9.872;2023-06-10T07:43:51;19.90;99.90
13806;DHT22;6974;53.606;9.872;2023-06-10T07:46:20;19.90;99.90
13806;DHT22;6974;53.606;9.872;2023-06-10T07:48:47;19.80;99.90
13806;DHT22;6974;53.606;9.872;2023-06-10T07:51:15;19.90;99.90
13806;DHT22;6974;53.606;9.872;2023-06-10T07:53:42;19.90;99.90
13806;DHT22;6974;53.606;9.872;2023-06-10T07:56:11;20.00;99.90
13806;DHT22;6974;53.606;9.872;2023-06-10T07:58:37;20.00;99.90
13806;DHT22;6974;53.606;9.872;2023-06-10T08:01:04;19.90;99.90
13806;DHT22;6974;53.606;9.872;2023-06-10T08:03:31;20.00;99.90
13806;DHT22;6974;53.606;9.872;2023-06-10T08:05:58;20.10;99.90
13806;DHT22;6974;53.606;9.872;2023-06-10T08:08:25;20.20;99.90
13806;DHT22;6974;53.606;9.872;2023-06-10T08:10:52;20.40;99.90
13806;DHT22;6974;53.606;9.872;2023-06-10T08:13:20;20.40;99.90
13806;DHT22;6974;53.606;9.872;2023-06-10T08:15:47;20.40;99.90
13806;DHT22;6974;53.606;9.872;2023-06-10T08:18:16;20.50;99.90
13806;DHT22;6974;53.606;9.872;2023-06-10T08:20:43;20.70;99.90
13806;DHT22;6974;53.606;9.872;2023-06-10T08:23:09;20.90;99.90
13806;DHT22;6974;53.606;9.872;2023-06-10T08:25:36;21.00;99.90
13806;DHT22;6974;53.606;9.872;2023-06-10T08:28:03;21.00;99.90
13806;DHT22;6974;53.606;9.872;2023-06-10T08:30:31;21.10;99.90
13806;DHT22;6974;53.606;9.872;2023-06-10T08:32:59;21.20;99.90
13806;DHT22;6974;53.606;9.872;2023-06-10T08:35:26;21.40;99.90
13806;DHT22;6974;53.606;9.872;2023-06-10T08:37:53;21.40;99.90
13806;DHT22;6974;53.606;9.872;2023-06-10T08:40:20;21.40;99.90
13806;DHT22;6974;53.606;9.872;2023-06-10T08:42:52;21.60;99.90
13806;DHT22;6974;53.606;9.872;2023-06-10T08:45:20;21.70;99.90
13806;DHT22;6974;53.606;9.872;2023-06-10T08:47:50;21.80;99.90
13806;DHT22;6974;53.606;9.872;2023-06-10T08:50:19;21.90;99.90
13806;DHT22;6974;53.606;9.872;2023-06-10T08:52:48;22.00;99.90
13806;DHT22;6974;53.606;9.872;2023-06-10T08:55:23;22.10;99.90
13806;DHT22;6974;53.606;9.872;2023-06-10T08:57:52;22.20;99.90
13806;DHT22;6974;53.606;9.872;2023-06-10T09:00:19;22.30;99.90
13806;DHT22;6974;53.606;9.872;2023-06-10T09:02:46;22.40;99.90
13806;DHT22;6974;53.606;9.872;2023-06-10T09:05:15;22.50;99.90
13806;DHT22;6974;53.606;9.872;2023-06-10T09:07:42;22.60;99.90
13806;DHT22;6974;53.606;9.872;2023-06-10T09:10:10;22.70;99.90
13806;DHT22;6974;53.606;9.872;2023-06-10T09:12:37;22.70;99.90
13806;DHT22;6974;53.606;9.872;2023-06-10T09:15:05;22.80;99.90
13806;DHT22;6974;53.606;9.872;2023-06-10T09:17:32;23.00;99.90
13806;DHT22;6974;53.606;9.872;2023-06-10T09:20:00;23.10;99.90
13806;DHT22;6974;53.606;9.872;2023-06-10T09:22:29;23.20;99.90
13806;DHT22;6974;53.606;9.872;2023-06-10T09:25:02;23.20;99.90
13806;DHT22;6974;53.606;9.872;2023-06-10T09:27:30;23.30;99.90
13806;DHT22;6974;53.606;9.872;2023-06-10T09:29:57;23.40;99.90
13806;DHT22;6974;53.606;9.872;2023-06-10T09:32:25;23.50;99.90
13806;DHT22;6974;53.606;9.872;2023-06-10T09:34:51;23.70;99.90
13806;DHT22;6974;53.606;9.872;2023-06-10T09:37:21;23.90;99.90
13806;DHT22;6974;53.606;9.872;2023-06-10T09:40:03;24.10;99.90
13806;DHT22;6974;53.606;9.872;2023-06-10T09:42:34;24.00;99.90
13806;DHT22;6974;53.606;9.872;2023-06-10T09:45:01;24.10;99.90
13806;DHT22;6974;53.606;9.872;2023-06-10T09:47:28;24.20;99.90
13806;DHT22;6974;53.606;9.872;2023-06-10T09:49:55;24.30;99.90
13806;DHT22;6974;53.606;9.872;2023-06-10T09:52:22;24.40;99.90
13806;DHT22;6974;53.606;9.872;2023-06-10T09:54:50;24.50;99.90
13806;DHT22;6974;53.606;9.872;2023-06-10T09:57:19;24.30;99.90
13806;DHT22;6974;53.606;9.872;2023-06-10T09:59:46;24.50;99.90
13806;DHT22;6974;53.606;9.872;2023-06-10T10:02:14;24.60;99.90
13806;DHT22;6974;53.606;9.872;2023-06-10T10:04:41;24.60;99.90
13806;DHT22;6974;53.606;9.872;2023-06-10T10:07:08;24.80;99.90
13806;DHT22;6974;53.606;9.872;2023-06-10T10:09:36;25.00;99.90
13806;DHT22;6974;53.606;9.872;2023-06-10T10:12:05;25.10;99.90
13806;DHT22;6974;53.606;9.872;2023-06-10T10:14:35;25.10;99.90
13806;DHT22;6974;53.606;9.872;2023-06-10T10:17:05;25.10;99.90
13806;DHT22;6974;53.606;9.872;2023-06-10T10:19:35;25.20;99.90
13806;DHT22;6974;53.606;9.872;2023-06-10T10:22:07;25.30;99.90
13806;DHT22;6974;53.606;9.872;2023-06-10T10:24:38;25.40;99.90
13806;DHT22;6974;53.606;9.872;2023-06-10T10:27:16;25.40;99.90
13806;DHT22;6974;53.606;9.872;2023-06-10T10:29:47;25.40;99.90
13806;DHT22;6974;53.606;9.872;2023-06-10T10:32:16;25.60;99.90
13806;DHT22;6974;53.606;9.872;2023-06-10T10:34:50;25.60;99.90
13806;DHT22;6974;53.606;9.872;2023-06-10T10:37:20;25.80;99.90
13806;DHT22;6974;53.606;9.872;2023-06-10T10:39:47;25.90;99.90
13806;DHT22;6974;53.606;9.872;2023-06-10T10:42:14;25.90;99.90
13806;DHT22;6974;53.606;9.872;2023-06-10T10:44:42;26.10;99.90
13806;DHT22;6974;53.606;9.872;2023-06-10T10:47:12;26.20;99.90
13806;DHT22;6974;53.606;9.872;2023-06-10T10:49:43;26.30;99.90
13806;DHT22;6974;53.606;9.872;2023-06-10T10:52:11;26.40;99.90
13806;DHT22;6974;53.606;9.872;2023-06-10T10:54:43;26.50;99.90
13806;DHT22;6974;53.606;9.872;2023-06-10T10:57:12;26.50;99.90
13806;DHT22;6974;53.606;9.872;2023-06-10T10:59:53;26.40;99.90
13806;DHT22;6974;53.606;9.872;2023-06-10T11:02:40;26.50;99.90
13806;DHT22;6974;53.606;9.872;2023-06-10T11:05:09;26.60;99.90
13806;DHT22;6974;53.606;9.872;2023-06-10T11:07:37;26.70;99.90
13806;DHT22;6974;53.606;9.872;2023-06-10T11:10:07;26.80;99.90
13806;DHT22;6974;53.606;9.872;2023-06-10T11:12:51;26.90;99.90
13806;DHT22;6974;53.606;9.872;2023-06-10T11:15:21;27.00;99.90
13806;DHT22;6974;53.606;9.872;2023-06-10T11:18:08;26.90;99.90
13806;DHT22;6974;53.606;9.872;2023-06-10T11:20:53;27.10;99.90
13806;DHT22;6974;53.606;9.872;2023-06-10T11:23:34;27.10;99.90
13806;DHT22;6974;53.606;9.872;2023-06-10T11:26:31;27.20;99.90
13806;DHT22;6974;53.606;9.872;2023-06-10T11:29:06;27.30;99.90
13806;DHT22;6974;53.606;9.872;2023-06-10T11:31:40;27.30;99.90
13806;DHT22;6974;53.606;9.872;2023-06-10T11:34:08;27.30;99.90
13806;DHT22;6974;53.606;9.872;2023-06-10T11:36:38;27.30;99.90
13806;DHT22;6974;53.606;9.872;2023-06-10T11:39:08;27.30;99.90
13806;DHT22;6974;53.606;9.872;2023-06-10T11:41:37;27.40;99.90
13806;DHT22;6974;53.606;9.872;2023-06-10T11:44:07;27.50;99.90
13806;DHT22;6974;53.606;9.872;2023-06-10T11:46:34;27.60;99.90
13806;DHT22;6974;53.606;9.872;2023-06-10T11:49:01;27.60;99.90
13806;DHT22;6974;53.606;9.872;2023-06-10T11:51:32;27.70;99.90
13806;DHT22;6974;53.606;9.872;2023-06-10T11:53:59;27.70;99.90
13806;DHT22;6974;53.606;9.872;2023-06-10T11:56:28;27.80;99.90
13806;DHT22;6974;53.606;9.872;2023-06-10T11:58:56;28.00;99.90
13806;DHT22;6974;53.606;9.872;2023-06-10T12:01:26;28.00;99.90
13806;DHT22;6974;53.606;9.872;2023-06-10T12:04:00;28.00;99.90
13806;DHT22;6974;53.606;9.872;2023-06-10T12:06:27;28.00;99.90
13806;DHT22;6974;53.606;9.872;2023-06-10T12:09:05;28.10;99.90
13806;DHT22;6974;53.606;9.872;2023-06-10T12:11:32;28.10;99.90
13806;DHT22;6974;53.606;9.872;2023-06-10T12:13:59;28.20;99.90
13806;DHT22;6974;53.606;9.872;2023-06-10T12:16:28;28.20;99.90
13806;DHT22;6974;53.606;9.872;2023-06-10T12:19:01;28.00;99.90
13806;DHT22;6974;53.606;9.872;2023-06-10T12:21:31;28.00;99.90
13806;DHT22;6974;53.606;9.872;2023-06-10T12:24:07;28.10;99.90
13806;DHT22;6974;53.606;9.872;2023-06-10T12:26:42;28.00;99.90
13806;DHT22;6974;53.606;9.872;2023-06-10T12:29:20;28.10;99.90
13806;DHT22;6974;53.606;9.872;2023-06-10T12:31:56;28.30;99.90
13806;DHT22;6974;53.606;9.872;2023-06-10T12:34:33;28.40;99.90
13806;DHT22;6974;53.606;9.872;2023-06-10T12:37:01;28.50;99.90
13806;DHT22;6974;53.606;9.872;2023-06-10T12:39:31;28.50;99.90
13806;DHT22;6974;53.606;9.872;2023-06-10T12:41:58;28.60;99.90
13806;DHT22;6974;53.606;9.872;2023-06-10T12:44:33;28.60;99.90
13806;DHT22;6974;53.606;9.872;2023-06-10T12:47:01;28.60;99.90
13806;DHT22;6974;53.606;9.872;2023-06-10T12:49:28;28.60;99.90
13806;DHT22;6974;53.606;9.872;2023-06-10T12:51:55;28.60;99.90
13806;DHT22;6974;53.606;9.872;2023-06-10T12:54:21;28.60;99.90
13806;DHT22;6974;53.606;9.872;2023-06-10T12:56:50;28.60;99.90
13806;DHT22;6974;53.606;9.872;2023-06-10T12:59:17;28.60;99.90
13806;DHT22;6974;53.606;9.872;2023-06-10T13:01:44;28.60;99.90
13806;DHT22;6974;53.606;9.872;2023-06-10T13:04:10;28.60;99.90
13806;DHT22;6974;53.606;9.872;2023-06-10T13:06:38;28.70;99.90
13806;DHT22;6974;53.606;9.872;2023-06-10T13:09:05;28.80;99.90
13806;DHT22;6974;53.606;9.872;2023-06-10T13:11:34;28.80;99.90
13806;DHT22;6974;53.606;9.872;2023-06-10T13:14:03;28.90;99.90
13806;DHT22;6974;53.606;9.872;2023-06-10T13:16:31;29.00;99.90
13806;DHT22;6974;53.606;9.872;2023-06-10T13:18:58;29.10;99.90
13806;DHT22;6974;53.606;9.872;2023-06-10T13:21:26;29.20;99.90
13806;DHT22;6974;53.606;9.872;2023-06-10T13:23:53;29.10;99.90
13806;DHT22;6974;53.606;9.872;2023-06-10T13:26:19;29.10;99.90
13806;DHT22;6974;53.606;9.872;2023-06-10T13:28:47;29.20;99.90
13806;DHT22;6974;53.606;9.872;2023-06-10T13:31:15;29.20;99.90
13806;DHT22;6974;53.606;9.872;2023-06-10T13:33:42;29.30;99.90
13806;DHT22;6974;53.606;9.872;2023-06-10T13:36:09;29.30;99.90
13806;DHT22;6974;53.606;9.872;2023-06-10T13:38:36;29.40;99.90
13806;DHT22;6974;53.606;9.872;2023-06-10T13:41:03;29.40;99.90
13806;DHT22;6974;53.606;9.872;2023-06-10T13:43:30;29.30;99.90
13806;DHT22;6974;53.606;9.872;2023-06-10T13:45:57;29.40;99.90
13806;DHT22;6974;53.606;9.872;2023-06-10T13:48:25;29.40;99.90
13806;DHT22;6974;53.606;9.872;2023-06-10T13:50:52;29.30;99.90
13806;DHT22;6974;53.606;9.872;2023-06-10T13:53:18;29.20;99.90
13806;DHT22;6974;53.606;9.872;2023-06-10T13:55:45;29.30;99.90
13806;DHT22;6974;53.606;9.872;2023-06-10T13:58:12;29.40;99.90
13806;DHT22;6974;53.606;9.872;2023-06-10T14:00:39;29.50;99.90
13806;DHT22;6974;53.606;9.872;2023-06-10T14:03:06;29.50;99.90
13806;DHT22;6974;53.606;9.872;2023-06-10T14:05:34;29.50;99.90
13806;DHT22;6974;53.606;9.872;2023-06-10T14:08:01;29.60;99.90
13806;DHT22;6974;53.606;9.872;2023-06-10T14:10:28;29.50;99.90
13806;DHT22;6974;53.606;9.872;2023-06-10T14:12:55;29.60;99.90
13806;DHT22;6974;53.606;9.872;2023-06-10T14:15:22;29.60;99.90
13806;DHT22;6974;53.606;9.872;2023-06-10T14:17:49;29.60;99.90
13806;DHT22;6974;53.606;9.872;2023-06-10T14:20:16;29.50;99.90
13806;DHT22;6974;53.606;9.872;2023-06-10T14:22:44;29.50;99.90
13806;DHT22;6974;53.606;9.872;2023-06-10T14:25:11;29.50;99.90
13806;DHT22;6974;53.606;9.872;2023-06-10T14:27:38;29.50;99.90
13806;DHT22;6974;53.606;9.872;2023-06-10T14:30:05;29.50;99.90
13806;DHT22;6974;53.606;9.872;2023-06-10T14:32:32;29.50;99.90
13806;DHT22;6974;53.606;9.872;2023-06-10T14:34:59;29.60;99.90
13806;DHT22;6974;53.606;9.872;2023-06-10T14:37:26;29.60;99.90
13806;DHT22;6974;53.606;9.872;2023-06-10T14:39:54;29.40;99.90
13806;DHT22;6974;53.606;9.872;2023-06-10T14:42:21;29.50;99.90
13806;DHT22;6974;53.606;9.872;2023-06-10T14:44:48;29.40;99.90
13806;DHT22;6974;53.606;9.872;2023-06-10T14:47:16;29.50;99.90
13806;DHT22;6974;53.606;9.872;2023-06-10T14:49:43;29.60;99.90
13806;DHT22;6974;53.606;9.872;2023-06-10T14:52:10;29.50;99.90
13806;DHT22;6974;53.606;9.872;2023-06-10T14:54:37;29.60;99.90
13806;DHT22;6974;53.606;9.872;2023-06-10T14:57:05;29.50;99.90
13806;DHT22;6974;53.606;9.872;2023-06-10T14:59:32;29.50;99.90
13806;DHT22;6974;53.606;9.872;2023-06-10T15:01:59;29.40;99.90
13806;DHT22;6974;53.606;9.872;2023-06-10T15:04:26;29.40;99.90
13806;DHT22;6974;53.606;9.872;2023-06-10T15:06:53;29.40;99.90
13806;DHT22;6974;53.606;9.872;2023-06-10T15:09:20;29.40;99.90
13806;DHT22;6974;53.606;9.872;2023-06-10T15:11:47;29.40;99.90
13806;DHT22;6974;53.606;9.872;2023-06-10T15:14:15;29.50;99.90
13806;DHT22;6974;53.606;9.872;2023-06-10T15:16:42;29.60;99.90
13806;DHT22;6974;53.606;9.872;2023-06-10T15:19:09;29.70;99.90
13806;DHT22;6974;53.606;9.872;2023-06-10T15:21:36;29.70;99.90
13806;DHT22;6974;53.606;9.872;2023-06-10T15:24:03;29.50;99.90
13806;DHT22;6974;53.606;9.872;2023-06-10T15:26:30;29.40;99.90
13806;DHT22;6974;53.606;9.872;2023-06-10T15:28:57;29.50;99.90
13806;DHT22;6974;53.606;9.872;2023-06-10T15:31:30;29.60;99.90
13806;DHT22;6974;53.606;9.872;2023-06-10T15:33:58;29.60;99.90
13806;DHT22;6974;53.606;9.872;2023-06-10T15:36:25;29.60;99.90
13806;DHT22;6974;53.606;9.872;2023-06-10T15:38:52;29.50;99.90
13806;DHT22;6974;53.606;9.872;2023-06-10T15:41:19;29.50;99.90
13806;DHT22;6974;53.606;9.872;2023-06-10T15:43:47;29.40;99.90
13806;DHT22;6974;53.606;9.872;2023-06-10T15:46:14;29.30;99.90
13806;DHT22;6974;53.606;9.872;2023-06-10T15:48:44;29.20;99.90
13806;DHT22;6974;53.606;9.872;2023-06-10T15:51:11;29.30;99.90